サンパウロ/グアルーリョス の空港の天気 - METARとTAF

グアルーリョス国際空港 (サンパウロ) ( SBGR / GRU ) - ブラジル サンパウロ州サンパウロ市
飛行場実況気象(Metar)
観測時間08/16 18:00 BRT (08/16 21:00 UTC)
風向・風速北東 4m/s
視程5000m
天気現象もや
全天の4割程度の雲 雲底高度 460m
全天の8割程度の雲 雲底高度 610m
気温16℃
湿度100%
気圧1019hPa
METARSBGR 162100Z 05008KT 5000 BR SCT015 BKN020 16/16 Q1019
過去の天気等 Google飛行場航空写真 Wunderground天気予報

過去48時間のMETAR

飛行場予報(TAF)
発表時間: 8/16 13:20 BRT (8/16 16:20 UTC)
予報対象時間: 16日15時 BRT ~ 17日21時 BRT
風向・風速南南東 4m/s
視程7,000m
全天の8割程度の雲 雲底高度 270m
16日15時 BRT ~ 16日23時 BRT に一時的に
視程4,000m
天気現象雨 もや
全天を覆う雲 雲底高度 180m
16日23時 BRT から 確率 40% で
風向・風速南東 3m/s
視程5,000m
天気現象霧雨 もや
全天の8割程度の雲 雲底高度 210m
17日4時 BRT ~ 17日6時 BRT に徐々に
風向・風速東 3m/s
視程8,000m
全天の8割程度の雲 雲底高度 240m
17日6時 BRT から 確率 40% で
視程2,000m
天気現象雨霧雨 もや
全天の8割程度の雲 雲底高度 120m
17日10時 BRT ~ 17日15時 BRT に 確率 40% で一時的に
視程6,000m
天気現象
全天の8割程度の雲 雲底高度 370m
17日15時 BRT ~ 17日17時 BRT に徐々に
視程8,000m
全天の8割程度の雲 雲底高度 300m
TAF SBGR 161620Z 1618/1724 15008KT 7000 BKN009 TX16/1618Z TN12/1709Z
TEMPO 1618/1702 4000 RA BR OVC006
PROB40 1702/1707 13005KT 5000 DZ BR BKN007
BECMG 1707/1709 09005KT 8000 BKN008
PROB40 1709/1713 2000 RADZ BR BKN004
PROB40 TEMPO 1713/1718 6000 RA BKN012
BECMG 1718/1720 8000 BKN010 RMK PHN